sensor_id;sensor_type;location;lat;lon;timestamp;temperature;humidity
67763;DHT22;54566;52.022;5.582;2023-09-18T00:00:47;17.60;99.90
67763;DHT22;54566;52.022;5.582;2023-09-18T00:03:20;17.60;99.90
67763;DHT22;54566;52.022;5.582;2023-09-18T00:05:46;17.60;99.90
67763;DHT22;54566;52.022;5.582;2023-09-18T00:08:16;17.60;99.90
67763;DHT22;54566;52.022;5.582;2023-09-18T00:10:42;17.60;99.90
67763;DHT22;54566;52.022;5.582;2023-09-18T00:13:11;17.70;99.90
67763;DHT22;54566;52.022;5.582;2023-09-18T00:15:37;17.70;99.90
67763;DHT22;54566;52.022;5.582;2023-09-18T00:18:04;17.70;99.90
67763;DHT22;54566;52.022;5.582;2023-09-18T00:20:30;17.70;99.90
67763;DHT22;54566;52.022;5.582;2023-09-18T00:22:56;17.70;99.90
67763;DHT22;54566;52.022;5.582;2023-09-18T00:25:22;17.70;99.90
67763;DHT22;54566;52.022;5.582;2023-09-18T00:27:48;17.70;99.90
67763;DHT22;54566;52.022;5.582;2023-09-18T00:30:14;17.70;99.90
67763;DHT22;54566;52.022;5.582;2023-09-18T00:32:40;17.70;99.90
67763;DHT22;54566;52.022;5.582;2023-09-18T00:35:06;17.70;99.90
67763;DHT22;54566;52.022;5.582;2023-09-18T00:37:32;17.70;99.90
67763;DHT22;54566;52.022;5.582;2023-09-18T00:39:58;17.70;99.90
67763;DHT22;54566;52.022;5.582;2023-09-18T00:42:24;17.70;99.90
67763;DHT22;54566;52.022;5.582;2023-09-18T00:44:50;17.70;99.90
67763;DHT22;54566;52.022;5.582;2023-09-18T00:47:18;17.70;99.90
67763;DHT22;54566;52.022;5.582;2023-09-18T00:49:47;17.70;99.90
67763;DHT22;54566;52.022;5.582;2023-09-18T00:52:14;17.70;99.90
67763;DHT22;54566;52.022;5.582;2023-09-18T00:54:40;17.70;99.90
67763;DHT22;54566;52.022;5.582;2023-09-18T00:57:08;17.70;99.90
67763;DHT22;54566;52.022;5.582;2023-09-18T00:59:34;17.70;99.90
67763;DHT22;54566;52.022;5.582;2023-09-18T01:02:00;17.70;99.90
67763;DHT22;54566;52.022;5.582;2023-09-18T01:04:26;17.80;99.90
67763;DHT22;54566;52.022;5.582;2023-09-18T01:06:54;17.80;99.90
67763;DHT22;54566;52.022;5.582;2023-09-18T01:09:22;17.70;99.90
67763;DHT22;54566;52.022;5.582;2023-09-18T01:14:50;17.70;99.90
67763;DHT22;54566;52.022;5.582;2023-09-18T01:17:22;17.80;99.90
67763;DHT22;54566;52.022;5.582;2023-09-18T01:19:48;17.70;99.90
67763;DHT22;54566;52.022;5.582;2023-09-18T01:22:15;17.70;99.90
67763;DHT22;54566;52.022;5.582;2023-09-18T01:24:46;17.70;99.90
67763;DHT22;54566;52.022;5.582;2023-09-18T01:27:16;17.70;99.90
67763;DHT22;54566;52.022;5.582;2023-09-18T01:29:45;17.80;99.90
67763;DHT22;54566;52.022;5.582;2023-09-18T01:32:11;17.80;99.90
67763;DHT22;54566;52.022;5.582;2023-09-18T01:34:41;17.80;99.90
67763;DHT22;54566;52.022;5.582;2023-09-18T01:37:10;17.80;99.90
67763;DHT22;54566;52.022;5.582;2023-09-18T01:39:37;17.90;99.90
67763;DHT22;54566;52.022;5.582;2023-09-18T01:42:05;17.90;99.90
67763;DHT22;54566;52.022;5.582;2023-09-18T01:44:35;18.00;99.90
67763;DHT22;54566;52.022;5.582;2023-09-18T01:47:04;18.00;99.90
67763;DHT22;54566;52.022;5.582;2023-09-18T01:49:39;18.00;99.90
67763;DHT22;54566;52.022;5.582;2023-09-18T01:52:06;18.10;99.90
67763;DHT22;54566;52.022;5.582;2023-09-18T01:54:33;18.20;99.90
67763;DHT22;54566;52.022;5.582;2023-09-18T01:56:59;18.20;99.90
67763;DHT22;54566;52.022;5.582;2023-09-18T01:59:25;18.30;99.90
67763;DHT22;54566;52.022;5.582;2023-09-18T02:01:52;18.40;99.90
67763;DHT22;54566;52.022;5.582;2023-09-18T02:04:19;18.40;99.90
67763;DHT22;54566;52.022;5.582;2023-09-18T02:06:47;18.40;99.90
67763;DHT22;54566;52.022;5.582;2023-09-18T02:09:13;18.50;99.90
67763;DHT22;54566;52.022;5.582;2023-09-18T02:11:40;18.50;99.90
67763;DHT22;54566;52.022;5.582;2023-09-18T02:14:07;18.50;99.90
67763;DHT22;54566;52.022;5.582;2023-09-18T02:16:33;18.60;99.90
67763;DHT22;54566;52.022;5.582;2023-09-18T02:19:00;18.60;99.90
67763;DHT22;54566;52.022;5.582;2023-09-18T02:21:26;18.70;99.90
67763;DHT22;54566;52.022;5.582;2023-09-18T02:23:52;18.70;99.90
67763;DHT22;54566;52.022;5.582;2023-09-18T02:26:19;18.80;99.90
67763;DHT22;54566;52.022;5.582;2023-09-18T02:28:46;18.80;99.90
67763;DHT22;54566;52.022;5.582;2023-09-18T02:31:12;18.80;99.90
67763;DHT22;54566;52.022;5.582;2023-09-18T02:33:38;18.70;99.90
67763;DHT22;54566;52.022;5.582;2023-09-18T02:36:05;18.80;99.90
67763;DHT22;54566;52.022;5.582;2023-09-18T02:38:30;18.70;99.90
67763;DHT22;54566;52.022;5.582;2023-09-18T02:40:56;18.70;99.90
67763;DHT22;54566;52.022;5.582;2023-09-18T02:43:23;18.70;99.90
67763;DHT22;54566;52.022;5.582;2023-09-18T02:45:49;18.70;99.90
67763;DHT22;54566;52.022;5.582;2023-09-18T02:48:15;18.70;99.90
67763;DHT22;54566;52.022;5.582;2023-09-18T02:50:40;18.70;99.90
67763;DHT22;54566;52.022;5.582;2023-09-18T02:53:07;18.70;99.90
67763;DHT22;54566;52.022;5.582;2023-09-18T02:55:34;18.70;99.90
67763;DHT22;54566;52.022;5.582;2023-09-18T02:58:00;18.70;99.90
67763;DHT22;54566;52.022;5.582;2023-09-18T03:00:25;18.70;99.90
67763;DHT22;54566;52.022;5.582;2023-09-18T03:02:51;18.70;99.90
67763;DHT22;54566;52.022;5.582;2023-09-18T03:05:17;18.70;99.90
67763;DHT22;54566;52.022;5.582;2023-09-18T03:07:44;18.70;99.90
67763;DHT22;54566;52.022;5.582;2023-09-18T03:10:10;18.70;99.90
67763;DHT22;54566;52.022;5.582;2023-09-18T03:12:39;18.70;99.90
67763;DHT22;54566;52.022;5.582;2023-09-18T03:15:05;18.70;99.90
67763;DHT22;54566;52.022;5.582;2023-09-18T03:17:32;18.70;99.90
67763;DHT22;54566;52.022;5.582;2023-09-18T03:19:58;18.70;99.90
67763;DHT22;54566;52.022;5.582;2023-09-18T03:22:25;18.60;99.90
67763;DHT22;54566;52.022;5.582;2023-09-18T03:24:51;18.70;99.90
67763;DHT22;54566;52.022;5.582;2023-09-18T03:27:17;18.60;99.90
67763;DHT22;54566;52.022;5.582;2023-09-18T03:29:42;18.60;99.90
67763;DHT22;54566;52.022;5.582;2023-09-18T03:32:08;18.60;99.90
67763;DHT22;54566;52.022;5.582;2023-09-18T03:34:38;18.60;99.90
67763;DHT22;54566;52.022;5.582;2023-09-18T03:37:03;18.60;99.90
67763;DHT22;54566;52.022;5.582;2023-09-18T03:39:29;18.60;99.90
67763;DHT22;54566;52.022;5.582;2023-09-18T03:41:55;18.60;99.90
67763;DHT22;54566;52.022;5.582;2023-09-18T03:44:20;18.60;99.90
67763;DHT22;54566;52.022;5.582;2023-09-18T03:46:46;18.60;99.90
67763;DHT22;54566;52.022;5.582;2023-09-18T03:49:12;18.60;99.90
67763;DHT22;54566;52.022;5.582;2023-09-18T03:51:37;18.60;99.90
67763;DHT22;54566;52.022;5.582;2023-09-18T03:54:03;18.60;99.90
67763;DHT22;54566;52.022;5.582;2023-09-18T03:56:29;18.60;99.90
67763;DHT22;54566;52.022;5.582;2023-09-18T03:58:54;18.70;99.90
67763;DHT22;54566;52.022;5.582;2023-09-18T04:01:20;18.70;99.90
67763;DHT22;54566;52.022;5.582;2023-09-18T04:03:46;18.60;99.90
67763;DHT22;54566;52.022;5.582;2023-09-18T04:06:11;18.60;99.90
67763;DHT22;54566;52.022;5.582;2023-09-18T04:08:37;18.60;99.90
67763;DHT22;54566;52.022;5.582;2023-09-18T04:11:03;18.70;99.90
67763;DHT22;54566;52.022;5.582;2023-09-18T04:13:29;18.70;99.90
67763;DHT22;54566;52.022;5.582;2023-09-18T04:15:55;18.70;99.90
67763;DHT22;54566;52.022;5.582;2023-09-18T04:18:22;18.70;99.90
67763;DHT22;54566;52.022;5.582;2023-09-18T04:20:48;18.60;99.90
67763;DHT22;54566;52.022;5.582;2023-09-18T04:23:22;18.70;99.90
67763;DHT22;54566;52.022;5.582;2023-09-18T04:25:49;18.70;99.90
67763;DHT22;54566;52.022;5.582;2023-09-18T04:28:16;18.60;99.90
67763;DHT22;54566;52.022;5.582;2023-09-18T04:30:42;18.70;99.90
67763;DHT22;54566;52.022;5.582;2023-09-18T04:33:08;18.70;99.90
67763;DHT22;54566;52.022;5.582;2023-09-18T04:35:33;18.60;99.90
67763;DHT22;54566;52.022;5.582;2023-09-18T04:37:59;18.60;99.90
67763;DHT22;54566;52.022;5.582;2023-09-18T04:40:25;18.60;99.90
67763;DHT22;54566;52.022;5.582;2023-09-18T04:42:58;18.70;99.90
67763;DHT22;54566;52.022;5.582;2023-09-18T04:45:24;18.60;99.90
67763;DHT22;54566;52.022;5.582;2023-09-18T04:47:50;18.70;99.90
67763;DHT22;54566;52.022;5.582;2023-09-18T04:50:16;18.70;99.90
67763;DHT22;54566;52.022;5.582;2023-09-18T04:52:42;18.70;99.90
67763;DHT22;54566;52.022;5.582;2023-09-18T04:55:09;18.70;99.90
67763;DHT22;54566;52.022;5.582;2023-09-18T04:57:35;18.80;99.90
67763;DHT22;54566;52.022;5.582;2023-09-18T05:00:01;18.80;99.90
67763;DHT22;54566;52.022;5.582;2023-09-18T05:02:28;18.80;99.90
67763;DHT22;54566;52.022;5.582;2023-09-18T05:04:56;18.90;99.90
67763;DHT22;54566;52.022;5.582;2023-09-18T05:07:21;18.90;99.90
67763;DHT22;54566;52.022;5.582;2023-09-18T05:09:49;18.90;99.90
67763;DHT22;54566;52.022;5.582;2023-09-18T05:12:14;18.90;99.90
67763;DHT22;54566;52.022;5.582;2023-09-18T05:14:43;18.80;99.90
67763;DHT22;54566;52.022;5.582;2023-09-18T05:17:10;18.90;99.90
67763;DHT22;54566;52.022;5.582;2023-09-18T05:19:37;18.80;99.90
67763;DHT22;54566;52.022;5.582;2023-09-18T05:22:06;18.80;99.90
67763;DHT22;54566;52.022;5.582;2023-09-18T05:24:32;18.80;99.90
67763;DHT22;54566;52.022;5.582;2023-09-18T05:26:58;18.80;99.90
67763;DHT22;54566;52.022;5.582;2023-09-18T05:29:24;18.80;99.90
67763;DHT22;54566;52.022;5.582;2023-09-18T05:31:50;18.80;99.90
67763;DHT22;54566;52.022;5.582;2023-09-18T05:34:15;18.80;99.90
67763;DHT22;54566;52.022;5.582;2023-09-18T05:36:41;18.80;99.90
67763;DHT22;54566;52.022;5.582;2023-09-18T05:39:07;18.80;99.90
67763;DHT22;54566;52.022;5.582;2023-09-18T05:41:38;18.80;99.90
67763;DHT22;54566;52.022;5.582;2023-09-18T05:44:05;18.80;99.90
67763;DHT22;54566;52.022;5.582;2023-09-18T05:46:34;18.80;99.90
67763;DHT22;54566;52.022;5.582;2023-09-18T05:49:00;18.80;99.90
67763;DHT22;54566;52.022;5.582;2023-09-18T05:51:27;18.80;99.90
67763;DHT22;54566;52.022;5.582;2023-09-18T05:53:53;18.80;99.90
67763;DHT22;54566;52.022;5.582;2023-09-18T05:56:19;18.80;99.90
67763;DHT22;54566;52.022;5.582;2023-09-18T05:58:44;18.90;99.90
67763;DHT22;54566;52.022;5.582;2023-09-18T06:01:10;18.80;99.90
67763;DHT22;54566;52.022;5.582;2023-09-18T06:03:39;18.90;99.90
67763;DHT22;54566;52.022;5.582;2023-09-18T06:06:05;18.90;99.90
67763;DHT22;54566;52.022;5.582;2023-09-18T06:08:31;18.90;99.90
67763;DHT22;54566;52.022;5.582;2023-09-18T06:10:58;18.90;99.90
67763;DHT22;54566;52.022;5.582;2023-09-18T06:13:25;18.90;99.90
67763;DHT22;54566;52.022;5.582;2023-09-18T06:15:54;18.90;99.90
67763;DHT22;54566;52.022;5.582;2023-09-18T06:18:21;18.90;99.90
67763;DHT22;54566;52.022;5.582;2023-09-18T06:20:47;18.90;99.90
67763;DHT22;54566;52.022;5.582;2023-09-18T06:23:13;18.90;99.90
67763;DHT22;54566;52.022;5.582;2023-09-18T06:25:39;19.00;99.90
67763;DHT22;54566;52.022;5.582;2023-09-18T06:28:06;19.00;99.90
67763;DHT22;54566;52.022;5.582;2023-09-18T06:30:33;19.00;99.90
67763;DHT22;54566;52.022;5.582;2023-09-18T06:33:00;19.00;99.90
67763;DHT22;54566;52.022;5.582;2023-09-18T06:35:26;19.00;99.90
67763;DHT22;54566;52.022;5.582;2023-09-18T06:37:52;19.10;99.90
67763;DHT22;54566;52.022;5.582;2023-09-18T06:40:20;19.10;99.90
67763;DHT22;54566;52.022;5.582;2023-09-18T06:42:46;19.10;99.90
67763;DHT22;54566;52.022;5.582;2023-09-18T06:45:11;19.10;99.90
67763;DHT22;54566;52.022;5.582;2023-09-18T06:47:38;19.10;99.90
67763;DHT22;54566;52.022;5.582;2023-09-18T06:50:06;19.10;99.90
67763;DHT22;54566;52.022;5.582;2023-09-18T06:52:32;19.10;99.90
67763;DHT22;54566;52.022;5.582;2023-09-18T06:54:58;19.10;99.90
67763;DHT22;54566;52.022;5.582;2023-09-18T06:57:25;19.20;99.90
67763;DHT22;54566;52.022;5.582;2023-09-18T06:59:51;19.20;99.90
67763;DHT22;54566;52.022;5.582;2023-09-18T07:02:17;19.20;99.90
67763;DHT22;54566;52.022;5.582;2023-09-18T07:04:42;19.20;99.90
67763;DHT22;54566;52.022;5.582;2023-09-18T07:07:15;19.20;99.90
67763;DHT22;54566;52.022;5.582;2023-09-18T07:09:43;19.30;99.90
67763;DHT22;54566;52.022;5.582;2023-09-18T07:12:09;19.30;99.90
67763;DHT22;54566;52.022;5.582;2023-09-18T07:14:35;19.40;99.90
67763;DHT22;54566;52.022;5.582;2023-09-18T07:17:01;19.40;99.90
67763;DHT22;54566;52.022;5.582;2023-09-18T07:19:27;19.40;99.90
67763;DHT22;54566;52.022;5.582;2023-09-18T07:21:53;19.40;99.90
67763;DHT22;54566;52.022;5.582;2023-09-18T07:24:19;19.40;99.90
67763;DHT22;54566;52.022;5.582;2023-09-18T07:26:46;19.40;99.90
67763;DHT22;54566;52.022;5.582;2023-09-18T07:29:16;19.40;99.90
67763;DHT22;54566;52.022;5.582;2023-09-18T07:31:42;19.50;99.90
67763;DHT22;54566;52.022;5.582;2023-09-18T07:34:09;19.50;99.90
67763;DHT22;54566;52.022;5.582;2023-09-18T07:36:35;19.50;99.90
67763;DHT22;54566;52.022;5.582;2023-09-18T07:39:01;19.40;99.90
67763;DHT22;54566;52.022;5.582;2023-09-18T07:41:27;19.50;99.90
67763;DHT22;54566;52.022;5.582;2023-09-18T07:43:53;19.50;99.90
67763;DHT22;54566;52.022;5.582;2023-09-18T07:46:18;19.60;99.90
67763;DHT22;54566;52.022;5.582;2023-09-18T07:48:44;19.50;99.90
67763;DHT22;54566;52.022;5.582;2023-09-18T07:51:13;19.60;99.90
67763;DHT22;54566;52.022;5.582;2023-09-18T07:53:39;19.60;99.90
67763;DHT22;54566;52.022;5.582;2023-09-18T07:56:05;19.70;99.90
67763;DHT22;54566;52.022;5.582;2023-09-18T07:58:31;19.60;99.90
67763;DHT22;54566;52.022;5.582;2023-09-18T08:00:59;19.70;99.90
67763;DHT22;54566;52.022;5.582;2023-09-18T08:03:26;19.70;99.90
67763;DHT22;54566;52.022;5.582;2023-09-18T08:05:52;19.70;99.90
67763;DHT22;54566;52.022;5.582;2023-09-18T08:08:19;19.70;99.90
67763;DHT22;54566;52.022;5.582;2023-09-18T08:10:49;19.70;99.90
67763;DHT22;54566;52.022;5.582;2023-09-18T08:13:15;19.70;99.90
67763;DHT22;54566;52.022;5.582;2023-09-18T08:15:41;19.80;99.90
67763;DHT22;54566;52.022;5.582;2023-09-18T08:18:06;19.80;99.90
67763;DHT22;54566;52.022;5.582;2023-09-18T08:20:32;19.90;99.90
67763;DHT22;54566;52.022;5.582;2023-09-18T08:22:59;19.90;99.90
67763;DHT22;54566;52.022;5.582;2023-09-18T08:25:31;19.90;99.90
67763;DHT22;54566;52.022;5.582;2023-09-18T08:27:56;19.90;99.90
67763;DHT22;54566;52.022;5.582;2023-09-18T08:30:22;20.00;99.90
67763;DHT22;54566;52.022;5.582;2023-09-18T08:32:48;19.90;99.90
67763;DHT22;54566;52.022;5.582;2023-09-18T08:35:13;19.90;99.90
67763;DHT22;54566;52.022;5.582;2023-09-18T08:37:43;19.90;99.90
67763;DHT22;54566;52.022;5.582;2023-09-18T08:40:12;20.00;99.90
67763;DHT22;54566;52.022;5.582;2023-09-18T08:42:51;20.00;99.90
67763;DHT22;54566;52.022;5.582;2023-09-18T08:48:09;20.10;99.90
67763;DHT22;54566;52.022;5.582;2023-09-18T08:50:36;20.10;99.90
67763;DHT22;54566;52.022;5.582;2023-09-18T08:53:03;20.30;99.90
67763;DHT22;54566;52.022;5.582;2023-09-18T08:55:29;20.30;99.90
67763;DHT22;54566;52.022;5.582;2023-09-18T08:57:55;20.30;99.90
67763;DHT22;54566;52.022;5.582;2023-09-18T09:00:23;20.30;99.90
67763;DHT22;54566;52.022;5.582;2023-09-18T09:02:49;20.30;99.90
67763;DHT22;54566;52.022;5.582;2023-09-18T09:05:16;20.30;99.90
67763;DHT22;54566;52.022;5.582;2023-09-18T09:07:42;20.30;99.90
67763;DHT22;54566;52.022;5.582;2023-09-18T09:10:08;20.30;99.90
67763;DHT22;54566;52.022;5.582;2023-09-18T09:13:06;20.20;99.90
67763;DHT22;54566;52.022;5.582;2023-09-18T09:15:41;20.20;99.90
67763;DHT22;54566;52.022;5.582;2023-09-18T09:18:11;20.20;99.90
67763;DHT22;54566;52.022;5.582;2023-09-18T09:20:37;20.40;99.90
67763;DHT22;54566;52.022;5.582;2023-09-18T09:23:05;20.50;99.90
67763;DHT22;54566;52.022;5.582;2023-09-18T09:25:32;20.40;99.90
67763;DHT22;54566;52.022;5.582;2023-09-18T09:28:03;20.60;99.90
67763;DHT22;54566;52.022;5.582;2023-09-18T09:30:31;20.90;99.90
67763;DHT22;54566;52.022;5.582;2023-09-18T09:32:58;20.90;99.90
67763;DHT22;54566;52.022;5.582;2023-09-18T09:35:30;21.00;99.90
67763;DHT22;54566;52.022;5.582;2023-09-18T09:38:00;21.10;99.90
67763;DHT22;54566;52.022;5.582;2023-09-18T09:40:28;21.20;99.90
67763;DHT22;54566;52.022;5.582;2023-09-18T09:42:56;21.20;99.90
67763;DHT22;54566;52.022;5.582;2023-09-18T09:45:30;21.50;99.90
67763;DHT22;54566;52.022;5.582;2023-09-18T09:48:00;21.50;99.80
67763;DHT22;54566;52.022;5.582;2023-09-18T09:50:26;21.60;99.40
67763;DHT22;54566;52.022;5.582;2023-09-18T09:52:52;21.70;99.20
67763;DHT22;54566;52.022;5.582;2023-09-18T09:55:26;21.80;99.00
67763;DHT22;54566;52.022;5.582;2023-09-18T09:58:02;21.90;98.50
67763;DHT22;54566;52.022;5.582;2023-09-18T10:00:50;21.90;98.80
67763;DHT22;54566;52.022;5.582;2023-09-18T10:03:18;21.90;98.90
67763;DHT22;54566;52.022;5.582;2023-09-18T10:05:46;22.10;98.80
67763;DHT22;54566;52.022;5.582;2023-09-18T10:08:13;22.20;98.30
67763;DHT22;54566;52.022;5.582;2023-09-18T10:10:49;22.20;98.00
67763;DHT22;54566;52.022;5.582;2023-09-18T10:13:29;22.00;96.90
67763;DHT22;54566;52.022;5.582;2023-09-18T10:15:57;21.80;97.80
67763;DHT22;54566;52.022;5.582;2023-09-18T10:18:47;21.70;98.60
67763;DHT22;54566;52.022;5.582;2023-09-18T10:21:41;21.60;98.00
67763;DHT22;54566;52.022;5.582;2023-09-18T10:24:39;21.30;98.40
67763;DHT22;54566;52.022;5.582;2023-09-18T10:27:06;21.10;97.90
67763;DHT22;54566;52.022;5.582;2023-09-18T10:29:35;21.00;99.90
67763;DHT22;54566;52.022;5.582;2023-09-18T10:32:06;21.00;99.80
67763;DHT22;54566;52.022;5.582;2023-09-18T10:34:35;20.90;99.40
67763;DHT22;54566;52.022;5.582;2023-09-18T10:37:03;20.90;99.60
67763;DHT22;54566;52.022;5.582;2023-09-18T10:39:35;21.00;99.70
67763;DHT22;54566;52.022;5.582;2023-09-18T10:42:02;20.90;99.40
67763;DHT22;54566;52.022;5.582;2023-09-18T10:44:29;20.90;99.70
67763;DHT22;54566;52.022;5.582;2023-09-18T10:46:58;20.90;99.60
67763;DHT22;54566;52.022;5.582;2023-09-18T10:49:25;20.90;99.60
67763;DHT22;54566;52.022;5.582;2023-09-18T10:51:54;20.70;99.60
67763;DHT22;54566;52.022;5.582;2023-09-18T10:54:22;20.60;99.70
67763;DHT22;54566;52.022;5.582;2023-09-18T10:56:48;20.60;99.90
67763;DHT22;54566;52.022;5.582;2023-09-18T10:59:15;20.60;99.90
67763;DHT22;54566;52.022;5.582;2023-09-18T11:01:44;20.70;99.90
67763;DHT22;54566;52.022;5.582;2023-09-18T11:04:11;20.60;99.90
67763;DHT22;54566;52.022;5.582;2023-09-18T11:09:28;20.80;99.80
67763;DHT22;54566;52.022;5.582;2023-09-18T11:14:29;21.00;99.00
67763;DHT22;54566;52.022;5.582;2023-09-18T11:17:06;20.90;99.30
67763;DHT22;54566;52.022;5.582;2023-09-18T11:19:31;21.10;99.30
67763;DHT22;54566;52.022;5.582;2023-09-18T11:22:07;21.10;99.30
67763;DHT22;54566;52.022;5.582;2023-09-18T11:24:35;21.20;99.00
67763;DHT22;54566;52.022;5.582;2023-09-18T11:27:01;21.10;98.20
67763;DHT22;54566;52.022;5.582;2023-09-18T11:29:26;21.00;99.00
67763;DHT22;54566;52.022;5.582;2023-09-18T11:31:55;21.10;98.80
67763;DHT22;54566;52.022;5.582;2023-09-18T11:34:28;21.40;98.20
67763;DHT22;54566;52.022;5.582;2023-09-18T11:36:57;21.60;96.30
67763;DHT22;54566;52.022;5.582;2023-09-18T11:39:50;21.60;97.40
67763;DHT22;54566;52.022;5.582;2023-09-18T11:42:19;21.70;96.40
67763;DHT22;54566;52.022;5.582;2023-09-18T11:44:47;21.80;97.00
67763;DHT22;54566;52.022;5.582;2023-09-18T11:47:18;21.90;97.00
67763;DHT22;54566;52.022;5.582;2023-09-18T11:49:52;22.30;96.60
67763;DHT22;54566;52.022;5.582;2023-09-18T11:52:24;22.50;96.00
67763;DHT22;54566;52.022;5.582;2023-09-18T11:54:50;22.60;95.50
67763;DHT22;54566;52.022;5.582;2023-09-18T11:57:20;22.50;95.60
67763;DHT22;54566;52.022;5.582;2023-09-18T11:59:46;22.50;95.10
67763;DHT22;54566;52.022;5.582;2023-09-18T12:02:29;22.60;95.50
67763;DHT22;54566;52.022;5.582;2023-09-18T12:05:14;22.60;93.60
67763;DHT22;54566;52.022;5.582;2023-09-18T12:07:45;22.50;93.20
67763;DHT22;54566;52.022;5.582;2023-09-18T12:10:15;22.40;95.20
67763;DHT22;54566;52.022;5.582;2023-09-18T12:12:46;22.40;95.20
67763;DHT22;54566;52.022;5.582;2023-09-18T12:15:18;22.40;95.20
67763;DHT22;54566;52.022;5.582;2023-09-18T12:17:48;22.50;94.80
67763;DHT22;54566;52.022;5.582;2023-09-18T12:20:18;22.40;94.60
67763;DHT22;54566;52.022;5.582;2023-09-18T12:22:47;22.50;94.80
67763;DHT22;54566;52.022;5.582;2023-09-18T12:25:15;22.50;93.30
67763;DHT22;54566;52.022;5.582;2023-09-18T12:27:41;22.50;94.30
67763;DHT22;54566;52.022;5.582;2023-09-18T12:30:08;22.40;94.40
67763;DHT22;54566;52.022;5.582;2023-09-18T12:32:37;22.50;94.40
67763;DHT22;54566;52.022;5.582;2023-09-18T12:35:05;22.60;94.00
67763;DHT22;54566;52.022;5.582;2023-09-18T12:37:39;22.50;93.40
67763;DHT22;54566;52.022;5.582;2023-09-18T12:40:07;22.50;93.20
67763;DHT22;54566;52.022;5.582;2023-09-18T12:42:39;22.60;93.40
67763;DHT22;54566;52.022;5.582;2023-09-18T12:45:07;22.70;93.00
67763;DHT22;54566;52.022;5.582;2023-09-18T12:47:34;22.80;92.70
67763;DHT22;54566;52.022;5.582;2023-09-18T12:50:03;22.80;93.20
67763;DHT22;54566;52.022;5.582;2023-09-18T12:52:30;22.70;92.70
67763;DHT22;54566;52.022;5.582;2023-09-18T12:54:57;22.70;93.30
67763;DHT22;54566;52.022;5.582;2023-09-18T12:57:25;22.60;93.20
67763;DHT22;54566;52.022;5.582;2023-09-18T12:59:50;22.50;93.40
67763;DHT22;54566;52.022;5.582;2023-09-18T13:02:18;22.50;93.60
67763;DHT22;54566;52.022;5.582;2023-09-18T13:04:55;22.80;93.40
67763;DHT22;54566;52.022;5.582;2023-09-18T13:07:22;22.90;91.50
67763;DHT22;54566;52.022;5.582;2023-09-18T13:10:05;23.00;92.70
67763;DHT22;54566;52.022;5.582;2023-09-18T13:15:24;22.80;91.10
67763;DHT22;54566;52.022;5.582;2023-09-18T13:17:52;22.60;91.90
67763;DHT22;54566;52.022;5.582;2023-09-18T13:20:21;22.70;93.00
67763;DHT22;54566;52.022;5.582;2023-09-18T13:22:51;22.80;92.50
67763;DHT22;54566;52.022;5.582;2023-09-18T13:25:23;22.90;91.80
67763;DHT22;54566;52.022;5.582;2023-09-18T13:27:51;23.00;91.40
67763;DHT22;54566;52.022;5.582;2023-09-18T13:30:20;23.10;92.00
67763;DHT22;54566;52.022;5.582;2023-09-18T13:32:48;23.20;88.60
67763;DHT22;54566;52.022;5.582;2023-09-18T13:35:15;23.10;91.40
67763;DHT22;54566;52.022;5.582;2023-09-18T13:37:41;23.10;91.50
67763;DHT22;54566;52.022;5.582;2023-09-18T13:40:08;23.20;91.40
67763;DHT22;54566;52.022;5.582;2023-09-18T13:42:35;23.20;91.20
67763;DHT22;54566;52.022;5.582;2023-09-18T13:45:01;23.30;91.30
67763;DHT22;54566;52.022;5.582;2023-09-18T13:47:30;23.30;91.00
67763;DHT22;54566;52.022;5.582;2023-09-18T13:49:56;23.20;91.10
67763;DHT22;54566;52.022;5.582;2023-09-18T13:52:30;23.20;91.10
67763;DHT22;54566;52.022;5.582;2023-09-18T13:54:56;23.10;90.90
67763;DHT22;54566;52.022;5.582;2023-09-18T13:57:22;23.10;91.10
67763;DHT22;54566;52.022;5.582;2023-09-18T13:59:48;23.20;91.10
67763;DHT22;54566;52.022;5.582;2023-09-18T14:02:15;23.20;91.00
67763;DHT22;54566;52.022;5.582;2023-09-18T14:04:41;23.20;91.50
67763;DHT22;54566;52.022;5.582;2023-09-18T14:07:08;23.20;91.20
67763;DHT22;54566;52.022;5.582;2023-09-18T14:09:34;23.20;90.90
67763;DHT22;54566;52.022;5.582;2023-09-18T14:12:01;23.20;90.90
67763;DHT22;54566;52.022;5.582;2023-09-18T14:14:28;23.30;90.90
67763;DHT22;54566;52.022;5.582;2023-09-18T14:16:55;23.40;90.70
67763;DHT22;54566;52.022;5.582;2023-09-18T14:19:21;23.40;90.70
67763;DHT22;54566;52.022;5.582;2023-09-18T14:21:46;23.50;90.50
67763;DHT22;54566;52.022;5.582;2023-09-18T14:24:15;23.60;90.60
67763;DHT22;54566;52.022;5.582;2023-09-18T14:26:42;23.40;90.50
67763;DHT22;54566;52.022;5.582;2023-09-18T14:29:08;23.30;90.50
67763;DHT22;54566;52.022;5.582;2023-09-18T14:31:35;23.20;90.40
67763;DHT22;54566;52.022;5.582;2023-09-18T14:34:01;23.20;90.40
67763;DHT22;54566;52.022;5.582;2023-09-18T14:36:27;23.20;90.10
67763;DHT22;54566;52.022;5.582;2023-09-18T14:38:53;23.20;90.00
67763;DHT22;54566;52.022;5.582;2023-09-18T14:41:20;23.20;89.50
67763;DHT22;54566;52.022;5.582;2023-09-18T14:43:46;23.20;89.50
67763;DHT22;54566;52.022;5.582;2023-09-18T14:46:13;23.20;88.90
67763;DHT22;54566;52.022;5.582;2023-09-18T14:48:38;23.10;89.30
67763;DHT22;54566;52.022;5.582;2023-09-18T14:51:04;23.10;89.80
67763;DHT22;54566;52.022;5.582;2023-09-18T14:53:32;23.00;89.30
67763;DHT22;54566;52.022;5.582;2023-09-18T14:55:59;22.90;89.50
67763;DHT22;54566;52.022;5.582;2023-09-18T14:58:24;22.90;89.10
67763;DHT22;54566;52.022;5.582;2023-09-18T15:00:50;22.80;89.20
67763;DHT22;54566;52.022;5.582;2023-09-18T15:03:16;22.80;89.50
67763;DHT22;54566;52.022;5.582;2023-09-18T15:05:42;22.80;89.60
67763;DHT22;54566;52.022;5.582;2023-09-18T15:08:08;22.70;90.10
67763;DHT22;54566;52.022;5.582;2023-09-18T15:10:34;22.70;90.30
67763;DHT22;54566;52.022;5.582;2023-09-18T15:12:59;22.60;90.40
67763;DHT22;54566;52.022;5.582;2023-09-18T15:15:25;22.50;90.40
67763;DHT22;54566;52.022;5.582;2023-09-18T15:17:51;22.40;90.50
67763;DHT22;54566;52.022;5.582;2023-09-18T15:20:18;20.10;94.10
67763;DHT22;54566;52.022;5.582;2023-09-18T15:22:44;18.80;96.00
67763;DHT22;54566;52.022;5.582;2023-09-18T15:25:10;18.10;97.00
67763;DHT22;54566;52.022;5.582;2023-09-18T15:27:37;17.60;97.90
67763;DHT22;54566;52.022;5.582;2023-09-18T15:30:04;17.20;98.50
67763;DHT22;54566;52.022;5.582;2023-09-18T15:32:33;17.10;98.60
67763;DHT22;54566;52.022;5.582;2023-09-18T15:35:10;17.10;99.90
67763;DHT22;54566;52.022;5.582;2023-09-18T15:37:36;17.00;98.60
67763;DHT22;54566;52.022;5.582;2023-09-18T15:40:01;16.80;98.70
67763;DHT22;54566;52.022;5.582;2023-09-18T15:42:29;16.70;98.90
67763;DHT22;54566;52.022;5.582;2023-09-18T15:44:56;16.60;99.90
67763;DHT22;54566;52.022;5.582;2023-09-18T15:47:21;16.60;98.70